Time;durP1;ratioP1;P1;durP2;ratioP2;P2;SDS_P1;SDS_P2;PMS_P1;PMS_P2;Temp;Humidity;BMP_temperature;BMP_pressure;BME280_temperature;BME280_humidity;BME280_pressure;Samples;Min_cycle;Max_cycle;Signal;HPM_P1;HPM_P2
2022/10/10 00:01:27;;;;;;;52.03;28.63;;;;;;;5.81;100.00;101388.53;5136605;27;20041;-43
2022/10/10 00:03:53;;;;;;;;;;;;;;;5.87;98.83;101382.88;5136128;27;20431;-43
2022/10/10 00:06:20;;;;;;;51.15;28.73;;;;;;;5.74;100.00;101384.72;5136779;27;19911;-44
2022/10/10 00:08:45;;;;;;;46.92;28.17;;;;;;;5.68;100.00;101379.28;5135666;27;20027;-43
2022/10/10 00:11:12;;;;;;;51.67;27.70;;;;;;;5.65;100.00;101375.66;5136524;27;20079;-47
2022/10/10 00:13:38;;;;;;;45.50;28.73;;;;;;;5.63;100.00;101377.22;5136130;27;20059;-43
2022/10/10 00:16:04;;;;;;;57.03;29.90;;;;;;;5.66;100.00;101377.41;5135844;27;20058;-46
2022/10/10 00:18:30;;;;;;;49.92;29.27;;;;;;;5.56;100.00;101376.84;5136545;27;20365;-44
2022/10/10 00:20:55;;;;;;;48.35;28.15;;;;;;;5.54;100.00;101373.34;5136158;27;20031;-43
2022/10/10 00:23:20;;;;;;;51.05;28.80;;;;;;;5.54;100.00;101372.44;5135562;27;20026;-46
2022/10/10 00:25:46;;;;;;;43.72;26.35;;;;;;;5.53;100.00;101373.25;5135932;27;20027;-46
2022/10/10 00:28:11;;;;;;;52.08;29.17;;;;;;;5.53;100.00;101368.16;5136448;27;20019;-46
2022/10/10 00:30:37;;;;;;;50.45;28.42;;;;;;;5.49;100.00;101372.19;5135401;27;20023;-43
2022/10/10 00:33:02;;;;;;;49.45;26.85;;;;;;;5.51;100.00;101373.16;5136496;27;20042;-44
2022/10/10 00:35:28;;;;;;;48.53;27.58;;;;;;;5.46;100.00;101369.44;5136232;27;20382;-44
2022/10/10 00:37:53;;;;;;;52.10;27.95;;;;;;;5.44;100.00;101368.50;5135049;27;20031;-44
2022/10/10 00:40:19;;;;;;;47.72;27.48;;;;;;;5.42;100.00;101370.06;5135859;27;20091;-44
2022/10/10 00:42:44;;;;;;;47.83;28.15;;;;;;;5.39;100.00;101369.88;5135768;27;20031;-49
2022/10/10 00:45:27;;;;;;;52.63;28.15;;;;;;;5.32;100.00;101367.75;5135067;27;20155;-47
2022/10/10 00:48:00;;;;;;;46.00;26.27;;;;;;;5.19;100.00;101361.94;5135365;27;20443;-45
2022/10/10 00:50:28;;;;;;;49.55;27.80;;;;;;;5.28;100.00;101362.47;5136307;27;20054;-44
2022/10/10 00:52:54;;;;;;;47.90;28.50;;;;;;;5.26;100.00;101358.94;5134724;27;20054;-44
2022/10/10 00:55:20;;;;;;;46.30;26.92;;;;;;;5.19;100.00;101361.03;5135973;27;20076;-46
2022/10/10 00:57:45;;;;;;;46.88;26.60;;;;;;;5.28;100.00;101348.81;5135699;27;20019;-43
2022/10/10 01:00:11;;;;;;;44.80;27.90;;;;;;;5.29;100.00;101348.00;5134761;27;20378;-44
2022/10/10 01:02:36;;;;;;;45.75;26.73;;;;;;;5.21;100.00;101344.13;5135486;27;20031;-46
2022/10/10 01:05:02;;;;;;;52.97;27.42;;;;;;;5.21;100.00;101342.44;5134820;27;20640;-45
2022/10/10 01:07:30;;;;;;;41.20;26.13;;;;;;;5.22;100.00;101348.44;5135345;27;20470;-43
2022/10/10 01:10:01;;;;;;;49.83;27.63;;;;;;;5.21;100.00;101337.31;5135610;27;20023;-44
2022/10/10 01:12:26;;;;;;;47.33;26.70;;;;;;;5.21;100.00;101337.31;5134791;27;20015;-43
2022/10/10 01:15:09;;;;;;;48.33;27.40;;;;;;;5.11;100.00;101338.47;5135592;27;20034;-44
2022/10/10 01:17:43;;;;;;;46.05;26.63;;;;;;;5.06;100.00;101336.41;5135274;27;20271;-43
2022/10/10 01:20:51;;;;;;;47.13;26.27;;;;;;;5.05;100.00;101337.22;5134527;27;20042;-47
2022/10/10 01:23:53;;;;;;;43.00;25.80;;;;;;;5.07;100.00;101335.63;5135307;27;20042;-44
2022/10/10 01:26:43;;;;;;;42.50;25.77;;;;;;;5.05;100.00;101337.22;5134306;27;20950;-46
2022/10/10 01:29:16;;;;;;;44.35;24.83;;;;;;;5.01;100.00;101332.69;5134923;27;20421;-43
2022/10/10 01:31:46;;;;;;;44.05;26.42;;;;;;;5.03;100.00;101336.25;5134873;27;20106;-48
2022/10/10 01:34:26;;;;;;;41.83;25.75;;;;;;;5.04;100.00;101327.78;5134213;27;20114;-46
2022/10/10 01:37:33;;;;;;;43.03;26.05;;;;;;;5.04;100.00;101331.22;5134923;27;20102;-44
2022/10/10 01:40:03;;;;;;;42.40;25.95;;;;;;;4.91;100.00;101329.59;5130538;27;20058;-43
2022/10/10 01:42:36;;;;;;;40.72;23.65;;;;;;;4.91;100.00;101329.59;5134784;27;20115;-45
2022/10/10 01:45:02;;;;;;;41.00;25.15;;;;;;;4.82;100.00;101323.94;5134805;27;20110;-47
2022/10/10 01:47:27;;;;;;;41.80;26.15;;;;;;;4.90;100.00;101326.97;5133751;27;20189;-46
2022/10/10 01:49:58;;;;;;;36.78;25.17;;;;;;;4.85;100.00;101326.66;5134650;27;20106;-44
2022/10/10 01:52:31;;;;;;;39.53;24.70;;;;;;;4.85;100.00;101329.22;5134731;27;20027;-44
2022/10/10 01:55:15;;;;;;;39.35;22.83;;;;;;;4.74;100.00;101320.06;5133138;27;20492;-45
2022/10/10 01:57:57;;;;;;;38.88;24.42;;;;;;;4.82;100.00;101316.28;5134529;27;20090;-44
2022/10/10 02:00:23;;;;;;;40.08;25.27;;;;;;;4.90;100.00;101309.09;5134558;27;20023;-45
2022/10/10 02:03:05;;;;;;;35.08;23.83;;;;;;;4.86;100.00;101309.69;5133438;27;20042;-45
2022/10/10 02:05:50;;;;;;;38.15;23.75;;;;;;;4.87;100.00;101304.66;5134261;27;20019;-44
2022/10/10 02:08:32;;;;;;;38.08;23.08;;;;;;;4.95;100.00;101308.56;5133984;27;20023;-44
2022/10/10 02:11:08;;;;;;;37.80;24.25;;;;;;;5.04;100.00;101300.56;5134405;27;20076;-43
2022/10/10 02:13:57;;;;;;;41.30;24.55;;;;;;;5.04;100.00;101294.59;5134105;27;20063;-43
2022/10/10 02:16:32;;;;;;;34.05;22.80;;;;;;;5.11;100.00;101291.59;5133491;27;20060;-45
2022/10/10 02:18:59;;;;;;;35.10;22.67;;;;;;;5.06;100.00;101293.88;5134332;27;20076;-43
2022/10/10 02:21:25;;;;;;;33.00;23.00;;;;;;;5.23;100.00;101299.13;5134110;27;20027;-46
2022/10/10 02:23:54;;;;;;;33.42;22.88;;;;;;;5.19;100.00;101289.47;5133224;27;20042;-44
2022/10/10 02:26:22;;;;;;;36.30;23.48;;;;;;;5.37;100.00;101289.66;5134029;27;20015;-45
2022/10/10 02:28:58;;;;;;;33.05;21.90;;;;;;;5.37;100.00;101295.69;5133723;27;20047;-43
2022/10/10 02:31:32;;;;;;;37.88;22.20;;;;;;;5.33;100.00;101290.28;5133499;27;20035;-46
2022/10/10 02:34:06;;;;;;;34.22;21.77;;;;;;;5.42;100.00;101288.25;5134352;27;20030;-45
2022/10/10 02:36:32;;;;;;;31.27;20.55;;;;;;;5.31;100.00;101279.06;5133058;27;20027;-46
2022/10/10 02:38:58;;;;;;;33.33;21.67;;;;;;;5.52;100.00;101284.56;5133930;27;20470;-46
2022/10/10 02:41:24;;;;;;;32.78;21.30;;;;;;;5.61;100.00;101278.28;5133993;27;20088;-45
2022/10/10 02:43:51;;;;;;;29.83;20.45;;;;;;;5.58;100.00;101274.69;5132748;28;20554;-46
2022/10/10 02:46:16;;;;;;;33.30;21.80;;;;;;;5.63;100.00;101278.41;5133800;28;20023;-46
2022/10/10 02:48:42;;;;;;;40.42;21.17;;;;;;;5.67;100.00;101264.97;5133760;28;20034;-44
2022/10/10 02:51:08;;;;;;;32.75;20.63;;;;;;;5.69;100.00;101268.47;5133026;28;20466;-43
2022/10/10 02:53:35;;;;;;;29.73;19.58;;;;;;;5.64;100.00;101269.03;5133470;28;20031;-44
2022/10/10 02:56:01;;;;;;;32.92;20.70;;;;;;;5.73;100.00;101257.66;5133950;28;20023;-43
2022/10/10 02:58:26;;;;;;;31.25;19.83;;;;;;;5.68;100.00;101260.72;5133183;28;20023;-47
2022/10/10 03:00:51;;;;;;;31.50;19.35;;;;;;;5.72;100.00;101248.22;5133480;28;20075;-44
2022/10/10 03:03:17;;;;;;;31.65;19.50;;;;;;;5.66;100.00;101254.66;5133844;28;20106;-44
2022/10/10 03:05:42;;;;;;;32.33;19.83;;;;;;;5.76;100.00;101246.72;5132584;27;20019;-44
2022/10/10 03:08:07;;;;;;;33.88;20.15;;;;;;;5.83;100.00;101247.94;5136987;27;20023;-45
2022/10/10 03:10:32;;;;;;;31.70;19.17;;;;;;;5.82;100.00;101249.59;5137783;27;20057;-45
2022/10/10 03:12:58;;;;;;;33.25;19.73;;;;;;;5.77;100.00;101251.00;5137073;27;20492;-43
2022/10/10 03:15:23;;;;;;;28.40;18.05;;;;;;;5.73;100.00;101249.09;5137729;27;20034;-46
2022/10/10 03:17:48;;;;;;;30.08;18.67;;;;;;;5.80;100.00;101251.19;5137530;27;20023;-45
2022/10/10 03:20:13;;;;;;;28.75;17.88;;;;;;;5.81;100.00;101247.84;5136952;27;20059;-43
2022/10/10 03:22:39;;;;;;;26.48;18.08;;;;;;;5.77;100.00;101246.78;5137220;27;20027;-45
2022/10/10 03:25:04;;;;;;;25.00;18.55;;;;;;;5.72;100.00;101247.31;5137711;27;20462;-45
2022/10/10 03:27:30;;;;;;;27.88;19.10;;;;;;;5.69;100.00;101242.03;5136878;27;20019;-45
2022/10/10 03:29:55;;;;;;;28.45;19.48;;;;;;;5.68;100.00;101238.63;5137624;27;20099;-44
2022/10/10 03:32:20;;;;;;;29.58;19.02;;;;;;;5.79;100.00;101241.75;5137357;27;20020;-45
2022/10/10 03:34:46;;;;;;;32.63;18.70;;;;;;;5.71;100.00;101248.13;5136226;27;20034;-43
2022/10/10 03:37:11;;;;;;;26.80;19.15;;;;;;;5.72;100.00;101242.19;5137309;27;20019;-45
2022/10/10 03:39:36;;;;;;;27.40;17.85;;;;;;;5.71;100.00;101243.03;5136619;27;20401;-43
2022/10/10 03:42:02;;;;;;;25.02;17.67;;;;;;;5.54;100.00;101242.94;5137207;27;20027;-45
2022/10/10 03:44:27;;;;;;;28.33;18.00;;;;;;;5.43;100.00;101250.00;5137252;27;20023;-46
2022/10/10 03:46:52;;;;;;;40.95;20.13;;;;;;;5.48;100.00;101252.81;5135939;27;20504;-44
2022/10/10 03:49:18;;;;;;;26.55;18.20;;;;;;;5.51;100.00;101252.13;5137080;27;20029;-43
2022/10/10 03:51:43;;;;;;;24.98;16.63;;;;;;;5.39;100.00;101247.19;5136795;27;20102;-44
2022/10/10 03:54:08;;;;;;;28.30;18.33;;;;;;;5.41;100.00;101255.81;5136255;27;20030;-44
2022/10/10 03:56:33;;;;;;;27.20;18.58;;;;;;;5.30;100.00;101252.66;5136644;27;20023;-43
2022/10/10 03:58:59;;;;;;;34.67;20.02;;;;;;;5.29;100.00;101250.88;5136994;27;20488;-45
2022/10/10 04:01:28;;;;;;;27.92;17.95;;;;;;;5.20;100.00;101241.03;5135975;27;20030;-43
2022/10/10 04:03:54;;;;;;;27.52;18.63;;;;;;;5.15;100.00;101247.56;5136485;27;20027;-44
2022/10/10 04:06:19;;;;;;;28.65;18.48;;;;;;;5.13;100.00;101249.13;5136635;27;20031;-44
2022/10/10 04:08:45;;;;;;;29.75;19.45;;;;;;;5.15;100.00;101254.31;5135618;27;20030;-47
2022/10/10 04:11:10;;;;;;;26.38;18.67;;;;;;;5.04;100.00;101239.25;5136557;27;20411;-43
2022/10/10 04:13:35;;;;;;;26.33;18.55;;;;;;;5.02;100.00;101242.50;5136618;27;20027;-45
2022/10/10 04:16:00;;;;;;;27.15;19.10;;;;;;;5.10;100.00;101238.75;5135930;27;20027;-43
2022/10/10 04:18:26;;;;;;;32.70;19.58;;;;;;;5.05;100.00;101235.91;5135895;27;20039;-44
2022/10/10 04:20:51;;;;;;;31.40;19.45;;;;;;;5.02;100.00;101240.84;5136103;27;20038;-45
2022/10/10 04:23:17;;;;;;;34.65;18.88;;;;;;;4.92;100.00;101243.66;5135494;27;20068;-43
2022/10/10 04:25:43;;;;;;;28.52;18.77;;;;;;;4.91;100.00;101242.75;5136235;27;20031;-43
2022/10/10 04:28:13;;;;;;;27.75;18.88;;;;;;;4.97;100.00;101247.38;5136433;27;20019;-47
2022/10/10 04:30:39;;;;;;;29.15;19.50;;;;;;;5.20;100.00;101243.59;5135189;27;20031;-43
2022/10/10 04:33:04;;;;;;;28.60;18.85;;;;;;;5.20;100.00;101246.16;5136165;27;20083;-47
2022/10/10 04:35:29;;;;;;;28.15;18.88;;;;;;;5.25;100.00;101238.72;5136060;27;20019;-43
2022/10/10 04:37:55;;;;;;;29.10;18.17;;;;;;;5.43;100.00;101238.91;5134956;27;20415;-48
2022/10/10 04:40:20;;;;;;;25.38;18.80;;;;;;;5.50;100.00;101243.56;5136153;27;20031;-43
2022/10/10 04:42:45;;;;;;;29.75;19.38;;;;;;;5.58;100.00;101244.88;5135957;27;20076;-43
2022/10/10 04:45:10;;;;;;;25.13;16.83;;;;;;;5.60;100.00;101238.19;5135275;27;20110;-43
2022/10/10 04:47:36;;;;;;;27.55;17.50;;;;;;;5.72;100.00;101240.53;5135485;27;20126;-46
2022/10/10 04:50:02;;;;;;;29.45;17.85;;;;;;;5.77;100.00;101243.34;5134959;27;20020;-43
2022/10/10 04:52:27;;;;;;;24.15;16.60;;;;;;;5.87;100.00;101244.75;5135703;27;20104;-43
2022/10/10 04:54:52;;;;;;;26.55;16.48;;;;;;;5.83;100.00;101241.13;5135394;27;20061;-45
2022/10/10 04:57:18;;;;;;;23.75;15.43;;;;;;;5.82;100.00;101236.78;5135016;27;20027;-46
2022/10/10 04:59:43;;;;;;;25.20;14.98;;;;;;;5.81;100.00;101240.19;5135426;27;20063;-46
2022/10/10 05:02:09;;;;;;;21.23;15.68;;;;;;;5.82;100.00;101238.50;5135686;27;20035;-43
2022/10/10 05:04:34;;;;;;;27.23;15.25;;;;;;;5.79;100.00;101236.63;5134651;27;20092;-43
2022/10/10 05:06:59;;;;;;;23.40;15.07;;;;;;;5.71;100.00;101230.22;5135456;27;20057;-44
2022/10/10 05:09:25;;;;;;;23.85;15.45;;;;;;;5.58;100.00;101229.53;5135392;27;20023;-43
2022/10/10 05:11:50;;;;;;;22.55;14.82;;;;;;;5.52;100.00;101221.53;5134695;27;20035;-43
2022/10/10 05:14:15;;;;;;;23.60;14.43;;;;;;;5.39;100.00;101226.75;5135483;27;20102;-45
2022/10/10 05:16:41;;;;;;;22.40;14.60;;;;;;;5.23;100.00;101225.00;5135142;27;20106;-44
2022/10/10 05:19:06;;;;;;;20.65;15.55;;;;;;;5.18;100.00;101227.28;5134490;27;20019;-45
2022/10/10 05:21:31;;;;;;;22.33;15.43;;;;;;;5.14;100.00;101224.44;5134839;27;20378;-43
2022/10/10 05:23:57;;;;;;;24.02;15.00;;;;;;;5.07;100.00;101225.78;5135331;27;20019;-46
2022/10/10 05:26:22;;;;;;;29.88;15.40;;;;;;;5.02;100.00;101229.72;5134415;27;20126;-43
2022/10/10 05:28:47;;;;;;;29.23;16.45;;;;;;;4.95;100.00;101224.25;5134453;27;20019;-44
2022/10/10 05:31:12;;;;;;;24.33;15.60;;;;;;;4.97;100.00;101223.47;5134807;27;20053;-43
2022/10/10 05:33:38;;;;;;;24.00;15.15;;;;;;;4.90;100.00;101229.91;5133985;27;20019;-44
2022/10/10 05:36:09;;;;;;;25.23;16.75;;;;;;;4.97;100.00;101232.03;5134910;27;20450;-44
2022/10/10 05:38:35;;;;;;;28.00;17.10;;;;;;;5.07;100.00;101234.34;5134527;27;20362;-45
2022/10/10 05:41:01;;;;;;;25.75;17.08;;;;;;;5.07;100.00;101228.34;5134053;27;20019;-44
2022/10/10 05:43:26;;;;;;;27.63;18.45;;;;;;;5.16;100.00;101233.97;5134678;27;20041;-47
2022/10/10 05:45:52;;;;;;;31.10;18.02;;;;;;;5.22;100.00;101234.31;5134562;27;20035;-48
2022/10/10 05:48:17;;;;;;;26.40;17.40;;;;;;;5.19;100.00;101231.59;5133654;27;20457;-49
2022/10/10 05:50:55;;;;;;;28.58;16.75;;;;;;;5.24;100.00;101236.97;5134349;27;20038;-49
2022/10/10 05:53:24;;;;;;;29.50;18.05;;;;;;;5.38;100.00;101235.19;5134043;27;20015;-48
2022/10/10 05:55:49;;;;;;;29.35;17.95;;;;;;;5.51;100.00;101231.66;5134497;27;20419;-48
2022/10/10 05:58:15;;;;;;;29.88;17.80;;;;;;;5.63;100.00;101226.34;5134442;27;20466;-48
2022/10/10 06:00:42;;;;;;;33.10;17.92;;;;;;;5.67;100.00;101236.84;5133318;27;20027;-47
2022/10/10 06:03:12;;;;;;;29.13;17.70;;;;;;;5.76;100.00;101236.47;5134464;27;20058;-48
2022/10/10 06:05:39;;;;;;;26.60;16.33;;;;;;;5.79;100.00;101228.97;5134350;27;20023;-49
2022/10/10 06:08:04;;;;;;;26.55;17.33;;;;;;;5.89;100.00;101235.47;5133619;27;20038;-45
2022/10/10 06:10:32;;;;;;;29.23;17.15;;;;;;;5.93;100.00;101233.16;5134281;27;20030;-47
2022/10/10 06:12:57;;;;;;;;;;;;;;;5.95;100.00;101240.91;5134733;27;20029;-47
2022/10/10 06:15:22;;;;;;;25.43;15.87;;;;;;;6.07;100.00;101235.63;5133471;27;20263;-49
2022/10/10 06:17:48;;;;;;;33.25;19.08;;;;;;;6.14;100.00;101231.72;5133856;27;20269;-48
2022/10/10 06:20:13;;;;;;;31.00;20.45;;;;;;;6.19;100.00;101231.16;5134041;27;20027;-48
2022/10/10 06:22:38;;;;;;;30.73;17.15;;;;;;;6.32;100.00;101242.06;5133263;27;20027;-49
2022/10/10 06:25:04;;;;;;;30.55;16.55;;;;;;;6.40;100.00;101240.78;5134089;27;20494;-48
2022/10/10 06:27:29;;;;;;;24.90;16.75;;;;;;;6.40;100.00;101245.91;5134143;27;20034;-50
2022/10/10 06:29:54;;;;;;;25.88;16.20;;;;;;;6.52;100.00;101244.00;5132999;27;20027;-48
2022/10/10 06:32:19;;;;;;;29.17;17.77;;;;;;;6.62;100.00;101247.03;5133885;27;20472;-49
2022/10/10 06:34:45;;;;;;;33.53;17.27;;;;;;;6.69;100.00;101251.69;5133926;27;20083;-48
2022/10/10 06:37:11;;;;;;;30.70;17.38;;;;;;;6.80;100.00;101253.09;5133219;27;20023;-47
2022/10/10 06:39:37;;;;;;;27.85;16.45;;;;;;;6.87;100.00;101249.19;5133782;27;20026;-50
2022/10/10 06:42:02;;;;;;;26.55;15.68;;;;;;;6.96;100.00;101244.53;5133703;27;20110;-48
2022/10/10 06:44:27;;;;;;;27.77;15.40;;;;;;;7.02;100.00;101251.63;5133491;28;20435;-49
2022/10/10 06:46:53;;;;;;;28.60;15.63;;;;;;;7.07;100.00;101251.06;5133488;28;20440;-50
2022/10/10 06:49:18;;;;;;;26.92;15.80;;;;;;;7.09;100.00;101252.03;5133804;28;20024;-49
2022/10/10 06:51:43;;;;;;;24.67;14.80;;;;;;;7.12;100.00;101256.41;5132935;28;20474;-50
2022/10/10 06:54:09;;;;;;;30.15;15.88;;;;;;;7.16;100.00;101260.91;5133973;28;20379;-48
2022/10/10 06:56:34;;;;;;;28.35;15.38;;;;;;;7.26;100.00;101257.13;5132618;28;20027;-44
2022/10/10 06:58:59;;;;;;;26.85;15.70;;;;;;;7.32;100.00;101259.09;5133780;28;20027;-48
2022/10/10 07:01:25;;;;;;;27.15;14.82;;;;;;;7.40;100.00;101262.94;5133538;28;20023;-48
2022/10/10 07:03:50;;;;;;;34.30;16.40;;;;;;;7.50;100.00;101257.44;5132533;28;20038;-49
2022/10/10 07:06:17;;;;;;;27.83;15.75;;;;;;;7.61;100.00;101252.81;5133813;28;20020;-47
2022/10/10 07:08:43;;;;;;;27.98;15.88;;;;;;;7.69;100.00;101261.75;5133335;28;20083;-50
2022/10/10 07:11:09;;;;;;;25.52;15.55;;;;;;;7.80;100.00;101257.16;5132944;28;20019;-44
2022/10/10 07:13:36;;;;;;;29.45;15.32;;;;;;;7.95;100.00;101264.69;5133380;28;20389;-48
2022/10/10 07:16:03;;;;;;;22.47;14.17;;;;;;;8.06;100.00;101265.19;5133572;28;20018;-49
2022/10/10 07:18:28;;;;;;;29.40;15.13;;;;;;;8.22;100.00;101259.97;5132894;28;20277;-44
2022/10/10 07:20:55;;;;;;;27.63;15.75;;;;;;;8.38;100.00;101265.81;5133099;28;20370;-49
2022/10/10 07:23:21;;;;;;;25.98;14.35;;;;;;;8.54;100.00;101268.25;5133544;28;20027;-48
2022/10/10 07:25:46;;;;;;;24.88;13.60;;;;;;;8.68;100.00;101275.72;5132399;28;20024;-49
2022/10/10 07:28:11;;;;;;;29.13;13.32;;;;;;;8.81;100.00;101267.72;5133467;28;20106;-48
2022/10/10 07:30:42;;;;;;;26.35;12.82;;;;;;;8.98;100.00;101268.44;5133045;28;20023;-47
2022/10/10 07:33:08;;;;;;;29.23;13.90;;;;;;;9.07;100.00;101265.41;5132820;28;20034;-49
2022/10/10 07:35:33;;;;;;;21.00;12.32;;;;;;;9.26;100.00;101271.31;5133267;28;20023;-45
2022/10/10 07:37:58;;;;;;;21.75;12.70;;;;;;;9.39;100.00;101269.31;5133476;28;20367;-50
2022/10/10 07:40:24;;;;;;;25.73;13.38;;;;;;;9.64;100.00;101275.44;5132316;28;20061;-48
2022/10/10 07:42:49;;;;;;;24.27;12.05;;;;;;;9.85;100.00;101275.44;5133209;28;20261;-50
2022/10/10 07:45:15;;;;;;;23.67;12.93;;;;;;;9.96;100.00;101278.44;5133285;28;20015;-49
2022/10/10 07:47:40;;;;;;;24.92;12.50;;;;;;;10.08;100.00;101287.44;5132028;28;20047;-49
2022/10/10 07:50:07;;;;;;;21.77;12.50;;;;;;;10.25;100.00;101295.81;5133205;28;20537;-48
2022/10/10 07:52:35;;;;;;;25.08;12.68;;;;;;;10.28;99.99;101299.41;5133566;27;20069;-49
2022/10/10 07:55:02;;;;;;;23.30;11.55;;;;;;;10.33;99.02;101299.59;5136285;27;20086;-50
2022/10/10 07:57:28;;;;;;;26.27;12.27;;;;;;;10.44;99.55;101303.44;5137057;27;20050;-49
2022/10/10 07:59:53;;;;;;;25.13;12.50;;;;;;;10.61;98.01;101305.78;5135722;27;20038;-48
2022/10/10 08:02:19;;;;;;;20.20;12.05;;;;;;;10.76;98.11;101301.19;5136955;27;20035;-47
2022/10/10 08:04:44;;;;;;;23.27;13.02;;;;;;;10.89;97.16;101307.66;5136755;27;20420;-49
2022/10/10 08:07:09;;;;;;;23.05;12.13;;;;;;;10.98;96.10;101313.13;5136022;27;20019;-49
2022/10/10 08:09:34;;;;;;;27.30;13.00;;;;;;;11.08;95.20;101309.19;5136426;27;20026;-49
2022/10/10 08:12:00;;;;;;;27.95;11.52;;;;;;;11.30;94.00;101312.53;5136593;27;20020;-46
2022/10/10 08:14:25;;;;;;;20.35;11.85;;;;;;;11.51;93.36;101304.63;5135569;27;20492;-48
2022/10/10 08:16:50;;;;;;;24.52;10.95;;;;;;;11.62;91.92;101299.78;5136217;27;20019;-46
2022/10/10 08:19:16;;;;;;;25.40;10.82;;;;;;;11.65;90.78;101292.16;5136688;27;20442;-49
2022/10/10 08:21:41;;;;;;;21.13;10.98;;;;;;;11.74;90.95;101300.19;5135446;27;20543;-48
2022/10/10 08:24:06;;;;;;;20.92;10.85;;;;;;;11.74;91.01;101297.63;5136546;27;20035;-48
2022/10/10 08:26:31;;;;;;;25.95;11.50;;;;;;;11.93;90.20;101299.09;5136005;27;20076;-48
2022/10/10 08:28:57;;;;;;;22.98;11.10;;;;;;;11.92;89.28;101301.63;5135394;27;20399;-50
2022/10/10 08:31:22;;;;;;;25.52;11.07;;;;;;;11.90;89.87;101300.69;5136482;27;20459;-48
2022/10/10 08:33:49;;;;;;;18.38;10.43;;;;;;;11.90;89.02;101311.00;5136070;27;20103;-49
2022/10/10 08:36:26;;;;;;;27.10;11.15;;;;;;;11.88;89.14;101305.81;5135555;27;20027;-48
2022/10/10 08:38:56;;;;;;;23.83;11.23;;;;;;;11.97;89.22;101305.25;5135902;27;20386;-49
2022/10/10 08:41:34;;;;;;;22.73;12.07;;;;;;;12.15;89.03;101305.81;5135962;27;20023;-50
2022/10/10 08:44:03;;;;;;;23.13;11.73;;;;;;;12.38;88.29;101307.31;5135301;27;20031;-49
2022/10/10 08:46:40;;;;;;;26.30;11.43;;;;;;;12.69;87.24;101314.25;5135748;27;20485;-49
2022/10/10 08:49:31;;;;;;;21.52;10.98;;;;;;;12.94;85.91;101299.44;5135381;27;20019;-45
2022/10/10 08:52:18;;;;;;;18.92;11.00;;;;;;;13.13;83.63;101305.97;5135885;27;20046;-45
2022/10/10 08:54:44;;;;;;;22.40;10.83;;;;;;;13.40;83.55;101313.63;5135764;27;20148;-48
2022/10/10 08:57:24;;;;;;;24.63;11.05;;;;;;;13.58;82.68;101322.66;5134965;27;20401;-45
2022/10/10 08:59:52;;;;;;;20.52;9.48;;;;;;;13.88;81.42;101312.19;5135507;27;20020;-48
2022/10/10 09:02:31;;;;;;;17.85;9.95;;;;;;;14.16;80.78;101305.91;5135372;27;20042;-50
2022/10/10 09:04:56;;;;;;;18.73;10.57;;;;;;;14.45;80.18;101295.28;5134957;27;20027;-46
2022/10/10 09:08:10;;;;;;;23.25;10.18;;;;;;;14.88;79.19;101317.78;5135484;27;20025;-50
2022/10/10 09:11:06;;;;;;;23.58;9.95;;;;;;;15.20;76.75;101315.78;5031215;28;20125;-49
2022/10/10 09:13:44;;;;;;;24.70;10.05;;;;;;;15.30;74.85;101316.84;5135236;27;20035;-50
2022/10/10 09:16:31;;;;;;;19.00;9.25;;;;;;;15.47;75.53;101323.19;5135473;27;20079;-49
2022/10/10 09:19:28;;;;;;;21.20;10.10;;;;;;;15.53;76.25;101321.53;5134614;27;20035;-48
2022/10/10 09:21:58;;;;;;;20.17;9.50;;;;;;;15.56;72.87;101319.00;5078534;27;20034;-48
2022/10/10 09:24:40;;;;;;;19.83;9.10;;;;;;;15.55;72.21;101325.06;5134426;27;20119;-49
2022/10/10 09:27:11;;;;;;;20.05;10.68;;;;;;;15.48;72.03;101330.13;5135149;27;20035;-49
2022/10/10 09:29:50;;;;;;;18.00;9.32;;;;;;;15.58;72.03;101322.50;5134759;27;20029;-49
2022/10/10 09:32:31;;;;;;;25.45;9.45;;;;;;;15.58;73.00;101332.88;5134143;27;20462;-49
2022/10/10 09:35:19;;;;;;;16.63;9.63;;;;;;;15.71;72.98;101334.84;5135156;27;20094;-49
2022/10/10 09:37:47;;;;;;;;;;;;;;;16.04;73.05;101328.44;5135075;27;20043;-50
2022/10/10 09:40:35;;;;;;;18.08;8.52;;;;;;;16.21;71.59;101341.69;5134159;27;20439;-48
2022/10/10 09:43:10;;;;;;;;;;;;;;;16.48;72.19;101347.25;5135457;27;20109;-50
2022/10/10 09:45:40;;;;;;;23.17;8.85;;;;;;;16.19;68.13;101348.59;5133787;27;20370;-50
2022/10/10 09:48:09;;;;;;;24.50;9.80;;;;;;;15.90;69.31;101350.75;5134519;27;20452;-47
2022/10/10 09:50:36;;;;;;;23.23;8.77;;;;;;;15.89;69.65;101351.59;5134576;27;20097;-50
2022/10/10 09:53:01;;;;;;;23.52;9.95;;;;;;;15.89;69.25;101343.81;5133808;27;20030;-47
2022/10/10 09:55:32;;;;;;;20.30;8.38;;;;;;;15.86;70.07;101354.16;5134472;27;20027;-47
2022/10/10 09:58:03;;;;;;;23.50;9.13;;;;;;;15.88;70.36;101357.66;5134648;27;20023;-49
2022/10/10 10:00:34;;;;;;;17.80;8.18;;;;;;;15.78;69.66;101357.47;5133811;27;20035;-50
2022/10/10 10:03:04;;;;;;;20.15;8.40;;;;;;;15.63;70.04;101352.03;5134466;27;20015;-45
2022/10/10 10:05:30;;;;;;;18.67;8.18;;;;;;;15.67;71.46;101356.41;5134558;27;20023;-48
2022/10/10 10:07:55;;;;;;;17.38;8.10;;;;;;;15.58;72.04;101362.34;5133732;27;20023;-49
2022/10/10 10:10:25;;;;;;;22.80;8.20;;;;;;;15.51;70.66;101362.22;5134265;27;20065;-47
2022/10/10 10:12:52;;;;;;;19.67;7.78;;;;;;;15.45;70.87;101358.66;5134168;27;20023;-49
2022/10/10 10:15:30;;;;;;;17.95;7.82;;;;;;;15.43;71.55;101360.34;5132955;27;20474;-49
2022/10/10 10:18:08;;;;;;;;;;;;;;;15.69;72.25;101362.53;5134867;27;20015;-47
2022/10/10 10:20:37;;;;;;;24.30;7.65;;;;;;;15.50;72.35;101352.69;5133131;27;19919;-48
2022/10/10 10:23:02;;;;;;;18.25;8.30;;;;;;;15.47;72.71;101356.94;5134123;27;20057;-49
2022/10/10 10:25:34;;;;;;;23.13;8.48;;;;;;;15.69;72.39;101369.47;5134111;27;20382;-50
2022/10/10 10:28:21;;;;;;;18.38;8.30;;;;;;;15.87;73.62;101361.97;5133294;27;20027;-48
2022/10/10 10:30:47;;;;;;;16.52;8.68;;;;;;;16.29;71.38;101371.28;5134014;27;20031;-44
2022/10/10 10:33:31;;;;;;;17.63;7.53;;;;;;;17.12;67.76;101370.63;5134298;27;20051;-49
2022/10/10 10:36:21;;;;;;;22.52;8.20;;;;;;;17.59;65.57;101366.75;5133224;27;20106;-48
2022/10/10 10:39:01;;;;;;;20.70;8.40;;;;;;;17.89;64.11;101373.06;5133661;27;20542;-50
2022/10/10 10:41:54;;;;;;;26.10;7.95;;;;;;;18.28;65.70;101371.59;5133673;27;20378;-50
2022/10/10 10:44:29;;;;;;;19.90;7.30;;;;;;;18.26;61.53;101381.19;5133816;27;20051;-51
2022/10/10 10:47:30;;;;;;;28.98;8.70;;;;;;;18.46;63.67;101381.28;5133345;28;20528;-46
2022/10/10 10:50:14;;;;;;;23.17;8.45;;;;;;;17.83;62.97;101381.72;5132994;28;20516;-48
2022/10/10 10:52:57;;;;;;;21.05;8.05;;;;;;;17.44;63.96;101391.81;5133547;28;20046;-47
2022/10/10 10:55:42;;;;;;;17.55;7.60;;;;;;;17.28;65.00;101397.69;5133565;28;20055;-47
2022/10/10 10:58:28;;;;;;;24.13;8.55;;;;;;;17.61;64.97;101393.66;5134048;28;20047;-49
2022/10/10 11:01:03;;;;;;;19.92;7.68;;;;;;;17.84;63.66;101398.22;5133374;28;20390;-49
2022/10/10 11:03:50;;;;;;;19.83;7.47;;;;;;;18.21;64.24;101398.53;5132992;28;20039;-47
2022/10/10 11:06:29;;;;;;;21.48;8.55;;;;;;;18.25;61.62;101395.09;5133871;28;20031;-51
2022/10/10 11:09:12;;;;;;;25.17;7.65;;;;;;;18.50;62.34;101405.66;5133476;28;20019;-49
2022/10/10 11:11:45;;;;;;;18.58;6.90;;;;;;;18.56;61.43;101410.94;5132505;28;20023;-50
2022/10/10 11:14:35;;;;;;;24.98;8.07;;;;;;;18.27;61.35;101403.81;5133542;28;20537;-48
2022/10/10 11:17:21;;;;;;;19.33;8.23;;;;;;;18.30;62.56;101403.81;5132837;28;20363;-50
2022/10/10 11:19:55;;;;;;;21.30;7.95;;;;;;;18.39;62.24;101416.91;5133392;28;20107;-50
2022/10/10 11:22:46;;;;;;;20.83;8.23;;;;;;;18.71;61.89;101421.47;5133557;28;20036;-49
2022/10/10 11:25:50;;;;;;;20.13;8.27;;;;;;;19.03;60.42;101420.75;5132857;28;20037;-49